Time;durP1;ratioP1;P1;durP2;ratioP2;P2;SDS_P1;SDS_P2;PMS_P1;PMS_P2;Temp;Humidity;BMP_temperature;BMP_pressure;BME280_temperature;BME280_humidity;BME280_pressure;Samples;Min_cycle;Max_cycle;Signal;HPM_P1;HPM_P2
2023/08/01 00:00:37;;;;;;;;;;;;;;;25.11;62.71;100363.09;7401176;19;1354;-48
2023/08/01 00:03:08;;;;;;;;;;;;;;;25.10;62.70;100358.72;7399789;19;1742;-48
2023/08/01 00:05:37;;;;;;;;;;;;;;;25.13;62.30;100352.09;7399716;19;1472;-48
2023/08/01 00:08:05;;;;;;;;;;;;;;;25.17;62.14;100356.13;7397123;19;1862;-48
2023/08/01 00:10:34;;;;;;;;;;;;;;;25.14;62.59;100364.59;7399595;19;1164;-48
2023/08/01 00:13:02;;;;;;;;;;;;;;;25.08;62.56;100349.09;7399847;19;1560;-48
2023/08/01 00:15:30;;;;;;;;;;;;;;;25.09;62.57;100348.94;7399039;19;1159;-48
2023/08/01 00:17:59;;;;;;;;;;;;;;;25.05;62.75;100336.81;7396986;19;1177;-48
2023/08/01 00:20:29;;;;;;;;;;;;;;;25.07;62.47;100347.41;7399570;19;1050;-48
2023/08/01 00:22:58;;;;;;;;;;;;;;;25.06;62.46;100338.47;7400655;19;1968;-48
2023/08/01 00:25:26;;;;;;;;;;;;;;;25.01;62.68;100330.91;7399047;19;1945;-48
2023/08/01 00:27:54;;;;;;;;;;;;;;;25.03;62.51;100322.63;7397847;19;1851;-48
2023/08/01 00:30:23;;;;;;;;;;;;;;;25.05;62.61;100342.22;7400000;19;1833;-48
2023/08/01 00:32:51;;;;;;;;;;;;;;;25.00;62.66;100340.03;7397383;19;1405;-48
2023/08/01 00:35:19;;;;;;;;;;;;;;;25.07;62.66;100339.28;7397053;19;1464;-48
2023/08/01 00:37:50;;;;;;;;;;;;;;;25.05;62.67;100330.53;7398640;19;1745;-48
2023/08/01 00:40:19;;;;;;;;;;;;;;;25.08;62.60;100341.81;7398116;19;1483;-48
2023/08/01 00:42:48;;;;;;;;;;;;;;;25.07;62.77;100333.88;7398149;19;1754;-48
2023/08/01 00:45:16;;;;;;;;;;;;;;;25.01;62.84;100328.22;7400299;19;943;-48
2023/08/01 00:47:45;;;;;;;;;;;;;;;25.04;62.78;100334.28;7399245;19;1868;-48
2023/08/01 00:50:13;;;;;;;;;;;;;;;24.99;62.96;100322.16;7397960;19;1850;-48
2023/08/01 00:52:42;;;;;;;;;;;;;;;24.99;62.60;100319.44;7398367;19;1505;-49
2023/08/01 00:55:13;;;;;;;;;;;;;;;24.98;62.84;100308.81;7397831;19;1426;-48
2023/08/01 00:57:41;;;;;;;;;;;;;;;25.01;62.79;100309.28;7398346;19;1539;-48
2023/08/01 01:00:10;;;;;;;;;;;;;;;25.04;62.84;100315.34;7397231;19;1492;-48
2023/08/01 01:02:39;;;;;;;;;;;;;;;25.09;62.73;100315.59;7397563;19;1492;-48
2023/08/01 01:05:08;;;;;;;;;;;;;;;25.06;62.62;100316.81;7398226;19;1568;-48
2023/08/01 01:07:37;;;;;;;;;;;;;;;25.11;62.39;100314.41;7396230;19;1861;-48
2023/08/01 01:10:06;;;;;;;;;;;;;;;25.06;62.28;100310.56;7397429;19;1538;-48
2023/08/01 01:12:36;;;;;;;;;;;;;;;25.00;62.68;100304.88;7398841;19;1078;-48
2023/08/01 01:15:05;;;;;;;;;;;;;;;25.06;62.37;100305.16;7398365;19;1133;-48
2023/08/01 01:17:33;;;;;;;;;;;;;;;25.07;62.63;100310.41;7396955;19;1651;-48
2023/08/01 01:20:01;;;;;;;;;;;;;;;25.04;62.46;100299.09;7395692;19;1541;-49
2023/08/01 01:22:33;;;;;;;;;;;;;;;25.08;62.43;100290.41;7396886;19;1225;-48
2023/08/01 01:25:02;;;;;;;;;;;;;;;25.07;62.63;100280.63;7396818;19;1556;-48
2023/08/01 01:27:31;;;;;;;;;;;;;;;25.08;62.08;100281.47;7396948;19;1838;-48
2023/08/01 01:29:59;;;;;;;;;;;;;;;25.09;62.49;100283.13;7392265;19;1858;-48
2023/08/01 01:32:28;;;;;;;;;;;;;;;25.11;62.07;100297.31;7397347;19;1471;-48
2023/08/01 01:34:56;;;;;;;;;;;;;;;25.07;62.43;100286.06;7396896;19;1735;-48
2023/08/01 01:37:24;;;;;;;;;;;;;;;25.11;62.31;100286.47;7397570;19;1404;-48
2023/08/01 01:39:55;;;;;;;;;;;;;;;25.10;62.34;100280.25;7397708;19;1865;-48
2023/08/01 01:42:24;;;;;;;;;;;;;;;25.01;62.72;100284.94;7397293;19;1118;-48
2023/08/01 01:44:52;;;;;;;;;;;;;;;25.07;62.47;100291.47;7397426;19;1948;-49
2023/08/01 01:47:20;;;;;;;;;;;;;;;25.12;62.39;100301.72;7396265;19;1481;-48
2023/08/01 01:49:48;;;;;;;;;;;;;;;25.08;62.53;100289.59;7397464;19;1377;-48
2023/08/01 01:52:17;;;;;;;;;;;;;;;25.04;62.69;100302.63;7396330;19;1805;-48
2023/08/01 01:54:45;;;;;;;;;;;;;;;25.08;62.33;100305.81;7396400;19;1409;-48
2023/08/01 01:57:16;;;;;;;;;;;;;;;25.01;62.49;100298.44;7395677;19;1540;-48
2023/08/01 01:59:44;;;;;;;;;;;;;;;25.09;62.28;100308.34;7394114;19;1229;-48
2023/08/01 02:02:12;;;;;;;;;;;;;;;25.08;62.43;100309.34;7396863;19;1034;-48
2023/08/01 02:04:41;;;;;;;;;;;;;;;25.04;62.34;100305.34;7393764;19;1908;-48
2023/08/01 02:07:09;;;;;;;;;;;;;;;25.04;62.36;100312.63;7394517;19;1960;-48
2023/08/01 02:09:37;;;;;;;;;;;;;;;25.01;62.41;100306.56;7394558;19;1857;-48
2023/08/01 02:12:08;;;;;;;;;;;;;;;25.04;62.34;100297.22;7396731;19;1818;-48
2023/08/01 02:14:39;;;;;;;;;;;;;;;25.02;62.43;100307.41;7396686;19;1456;-48
2023/08/01 02:17:07;;;;;;;;;;;;;;;24.99;62.41;100311.31;7395920;19;1480;-48
2023/08/01 02:19:36;;;;;;;;;;;;;;;24.95;62.55;100301.06;7394362;19;1333;-48
2023/08/01 02:22:04;;;;;;;;;;;;;;;25.02;62.47;100308.22;7395045;19;1425;-48
2023/08/01 02:24:32;;;;;;;;;;;;;;;25.02;62.61;100310.94;7394705;19;1864;-48
2023/08/01 02:27:01;;;;;;;;;;;;;;;24.95;62.80;100310.03;7396068;19;1727;-48
2023/08/01 02:29:29;;;;;;;;;;;;;;;25.02;62.70;100316.34;7393620;19;1826;-48
2023/08/01 02:32:00;;;;;;;;;;;;;;;25.06;62.49;100316.00;7395251;19;1954;-48
2023/08/01 02:34:28;;;;;;;;;;;;;;;25.00;62.34;100307.56;7396192;19;1044;-48
2023/08/01 02:36:57;;;;;;;;;;;;;;;25.01;62.29;100317.38;7392980;19;1940;-48
2023/08/01 02:39:25;;;;;;;;;;;;;;;24.96;62.75;100310.84;7393741;19;1311;-48
2023/08/01 02:41:53;;;;;;;;;;;;;;;24.96;62.76;100322.50;7398393;19;1253;-48
2023/08/01 02:44:21;;;;;;;;;;;;;;;24.99;62.65;100322.16;7401820;19;1485;-49
2023/08/01 02:46:50;;;;;;;;;;;;;;;24.93;62.94;100320.19;7402165;19;1481;-48
2023/08/01 02:49:20;;;;;;;;;;;;;;;24.96;62.76;100333.31;7399808;19;1853;-48
2023/08/01 02:51:49;;;;;;;;;;;;;;;24.96;62.55;100321.66;7402085;19;1597;-48
2023/08/01 02:54:17;;;;;;;;;;;;;;;24.98;62.62;100312.34;7402231;19;1249;-48
2023/08/01 02:56:45;;;;;;;;;;;;;;;24.96;62.62;100327.09;7402297;19;1492;-48
2023/08/01 02:59:14;;;;;;;;;;;;;;;24.90;62.80;100322.41;7402958;19;1110;-48
2023/08/01 03:01:42;;;;;;;;;;;;;;;24.92;62.70;100332.00;7401650;19;1045;-48
2023/08/01 03:04:11;;;;;;;;;;;;;;;24.89;62.85;100327.00;7401247;19;1478;-48
2023/08/01 03:06:42;;;;;;;;;;;;;;;24.91;62.63;100319.53;7401867;19;1418;-48
2023/08/01 03:09:10;;;;;;;;;;;;;;;24.93;62.96;100338.25;7400074;19;1924;-48
2023/08/01 03:11:39;;;;;;;;;;;;;;;24.99;62.68;100327.56;7402180;19;1358;-48
2023/08/01 03:14:07;;;;;;;;;;;;;;;24.92;62.73;100332.00;7402157;19;1431;-48
2023/08/01 03:16:36;;;;;;;;;;;;;;;24.89;62.88;100339.66;7401820;19;1825;-48
2023/08/01 03:19:04;;;;;;;;;;;;;;;24.93;62.75;100339.13;7400209;19;1472;-47
2023/08/01 03:21:33;;;;;;;;;;;;;;;24.92;62.86;100340.13;7400511;19;1788;-48
2023/08/01 03:24:08;;;;;;;;;;;;;;;24.92;62.75;100345.53;7401939;19;1409;-48
2023/08/01 03:26:36;;;;;;;;;;;;;;;24.94;62.67;100338.09;7401119;19;1349;-48
2023/08/01 03:29:05;;;;;;;;;;;;;;;24.93;62.72;100344.53;7401284;19;1843;-48
2023/08/01 03:31:33;;;;;;;;;;;;;;;24.90;62.73;100344.88;7400026;19;1598;-48
2023/08/01 03:34:01;;;;;;;;;;;;;;;24.93;62.63;100357.19;7401045;19;1620;-48
2023/08/01 03:36:29;;;;;;;;;;;;;;;24.92;62.67;100342.00;7399475;19;1576;-48
2023/08/01 03:38:58;;;;;;;;;;;;;;;24.91;62.62;100346.59;7400189;19;1252;-48
2023/08/01 03:41:29;;;;;;;;;;;;;;;24.95;62.39;100337.06;7398641;19;1442;-48
2023/08/01 03:43:57;;;;;;;;;;;;;;;24.99;62.35;100357.31;7399309;19;1288;-48
2023/08/01 03:46:25;;;;;;;;;;;;;;;24.96;62.48;100349.56;7400037;19;1563;-48
2023/08/01 03:48:53;;;;;;;;;;;;;;;24.93;62.67;100346.38;7398475;19;1873;-48
2023/08/01 03:51:22;;;;;;;;;;;;;;;24.98;62.52;100342.09;7399323;19;1698;-48
2023/08/01 03:53:50;;;;;;;;;;;;;;;25.04;62.26;100342.38;7397274;19;1252;-48
2023/08/01 03:56:18;;;;;;;;;;;;;;;25.04;62.12;100374.84;7400591;19;1489;-48
2023/08/01 03:58:49;;;;;;;;;;;;;;;25.08;62.07;100341.81;7401447;19;1027;-48
2023/08/01 04:01:17;;;;;;;;;;;;;;;25.09;62.27;100351.63;7399755;19;1481;-48
2023/08/01 04:03:46;;;;;;;;;;;;;;;25.13;62.30;100346.69;7400738;19;1816;-48
2023/08/01 04:06:15;;;;;;;;;;;;;;;25.14;61.80;100332.94;7399994;19;1996;-48
2023/08/01 04:08:44;;;;;;;;;;;;;;;25.14;61.95;100340.25;7399275;19;1836;-48
2023/08/01 04:11:12;;;;;;;;;;;;;;;25.18;62.06;100341.53;7398546;19;1468;-48
2023/08/01 04:13:40;;;;;;;;;;;;;;;25.17;61.91;100350.69;7397114;19;1780;-48
2023/08/01 04:16:11;;;;;;;;;;;;;;;25.16;62.14;100343.59;7399089;19;1782;-48
2023/08/01 04:18:39;;;;;;;;;;;;;;;25.25;61.57;100364.16;7400299;19;1441;-48
2023/08/01 04:21:08;;;;;;;;;;;;;;;25.23;61.88;100347.28;7396967;19;1684;-48
2023/08/01 04:23:37;;;;;;;;;;;;;;;25.28;61.52;100349.41;7400576;19;1058;-48
2023/08/01 04:26:06;;;;;;;;;;;;;;;25.25;61.75;100353.34;7399858;19;1231;-48
2023/08/01 04:28:34;;;;;;;;;;;;;;;25.10;62.07;100366.81;7399968;19;1854;-48
2023/08/01 04:31:03;;;;;;;;;;;;;;;25.09;62.30;100353.47;7398990;19;1954;-48
2023/08/01 04:33:33;;;;;;;;;;;;;;;25.05;62.48;100357.56;7399378;19;1639;-48
2023/08/01 04:36:02;;;;;;;;;;;;;;;25.17;61.87;100364.22;7398480;19;1397;-48
2023/08/01 04:38:30;;;;;;;;;;;;;;;25.09;62.46;100356.19;7398209;19;1812;-48
2023/08/01 04:40:58;;;;;;;;;;;;;;;25.04;62.29;100366.75;7395359;19;1810;-48
2023/08/01 04:43:26;;;;;;;;;;;;;;;25.09;62.26;100358.88;7397739;19;1495;-48
2023/08/01 04:45:55;;;;;;;;;;;;;;;25.10;62.33;100371.41;7397958;19;1342;-48
2023/08/01 04:48:23;;;;;;;;;;;;;;;25.04;62.42;100374.84;7396506;19;1861;-48
2023/08/01 04:50:54;;;;;;;;;;;;;;;25.09;62.29;100377.81;7399181;19;1699;-48
2023/08/01 04:53:22;;;;;;;;;;;;;;;25.04;61.99;100353.22;7398342;19;1313;-48
2023/08/01 04:55:50;;;;;;;;;;;;;;;25.07;62.21;100364.50;7399717;19;950;-48
2023/08/01 04:58:19;;;;;;;;;;;;;;;25.10;62.45;100390.34;7396882;19;1551;-48
2023/08/01 05:20:30;;;;;;;;;;;;;;;24.93;62.84;100386.94;6909701;19;10002117;-47
2023/08/01 05:22:58;;;;;;;;;;;;;;;24.94;62.73;100375.94;7425097;19;1347;-47
2023/08/01 05:25:27;;;;;;;;;;;;;;;24.94;62.73;100386.78;7425413;19;1493;-47
2023/08/01 05:27:55;;;;;;;;;;;;;;;24.93;62.91;100395.06;7427414;19;1856;-47
2023/08/01 05:30:23;;;;;;;;;;;;;;;24.93;62.86;100390.50;7425333;19;1505;-47
2023/08/01 05:32:53;;;;;;;;;;;;;;;24.91;62.87;100389.84;7425765;19;1427;-47
2023/08/01 05:35:22;;;;;;;;;;;;;;;24.92;62.98;100396.94;7425171;19;1536;-47
2023/08/01 05:37:52;;;;;;;;;;;;;;;24.95;62.80;100396.56;7426405;19;1115;-47
2023/08/01 05:40:21;;;;;;;;;;;;;;;24.35;62.96;100316.31;7425066;19;2199;-47
2023/08/01 05:42:49;;;;;;;;;;;;;;;24.91;62.76;100395.28;7425122;19;1328;-47
2023/08/01 05:45:17;;;;;;;;;;;;;;;24.93;62.66;100401.34;7423498;19;1394;-47
2023/08/01 05:47:46;;;;;;;;;;;;;;;24.95;62.92;100407.41;7424578;19;1856;-47
2023/08/01 05:50:14;;;;;;;;;;;;;;;24.95;62.85;100396.56;7425309;19;1449;-47
2023/08/01 05:52:42;;;;;;;;;;;;;;;24.94;62.80;100389.47;7425689;19;1566;-47
2023/08/01 05:55:13;;;;;;;;;;;;;;;24.94;62.83;100392.19;7425551;19;1326;-47
2023/08/01 05:57:42;;;;;;;;;;;;;;;24.91;62.75;100389.84;7424539;19;1331;-47
2023/08/01 06:00:10;;;;;;;;;;;;;;;24.89;63.01;100389.19;7424759;19;1353;-47
2023/08/01 06:02:39;;;;;;;;;;;;;;;24.91;62.95;100394.41;7425331;19;1507;-47
2023/08/01 06:05:08;;;;;;;;;;;;;;;24.89;63.04;100386.50;7425092;19;1619;-47
2023/08/01 06:07:36;;;;;;;;;;;;;;;24.89;63.13;100386.50;7426437;19;1026;-47
2023/08/01 06:10:04;;;;;;;;;;;;;;;24.88;63.10;100384.81;7421130;19;2224;-47
2023/08/01 06:12:35;;;;;;;;;;;;;;;24.90;62.83;100381.91;7425013;19;1822;-47
2023/08/01 06:15:03;;;;;;;;;;;;;;;24.90;63.12;100377.34;7424005;19;1315;-47
2023/08/01 06:17:32;;;;;;;;;;;;;;;24.93;62.85;100371.56;7422858;19;1525;-46
2023/08/01 06:20:00;;;;;;;;;;;;;;;24.94;62.87;100373.25;7408873;19;1518;-47
2023/08/01 06:22:28;;;;;;;;;;;;;;;24.96;62.74;100371.19;7394405;19;1464;-47
2023/08/01 06:24:56;;;;;;;;;;;;;;;24.97;63.03;100353.13;7394920;19;1458;-47
2023/08/01 06:27:24;;;;;;;;;;;;;;;24.99;62.82;100370.84;7395690;19;1530;-47
2023/08/01 06:29:55;;;;;;;;;;;;;;;24.99;62.91;100365.44;7394424;19;1854;-47
2023/08/01 06:32:24;;;;;;;;;;;;;;;25.00;62.72;100356.28;7396460;19;1558;-47
2023/08/01 06:34:52;;;;;;;;;;;;;;;25.00;62.76;100356.28;7396925;19;1116;-47
2023/08/01 06:37:20;;;;;;;;;;;;;;;25.04;62.62;100353.22;7395426;19;1783;-47
2023/08/01 06:39:49;;;;;;;;;;;;;;;25.06;62.55;100360.09;7395125;19;1855;-47
2023/08/01 06:42:18;;;;;;;;;;;;;;;25.02;62.67;100353.38;7395029;19;1593;-47
2023/08/01 06:44:46;;;;;;;;;;;;;;;25.07;62.55;100360.94;7394785;19;1739;-47
2023/08/01 06:47:17;;;;;;;;;;;;;;;25.05;62.64;100368.41;7393278;19;1602;-47
2023/08/01 06:49:45;;;;;;;;;;;;;;;25.06;62.42;100351.16;7391864;19;1858;-47
2023/08/01 06:52:13;;;;;;;;;;;;;;;25.08;62.60;100357.22;7394364;19;1562;-47
2023/08/01 06:54:42;;;;;;;;;;;;;;;25.09;62.49;100359.75;7395004;19;1375;-46
2023/08/01 06:57:10;;;;;;;;;;;;;;;25.06;62.67;100348.44;7393547;19;1569;-47
2023/08/01 06:59:38;;;;;;;;;;;;;;;25.08;62.55;100359.94;7394212;19;1490;-47
2023/08/01 07:02:08;;;;;;;;;;;;;;;25.07;62.64;100358.22;7394837;19;1411;-47
2023/08/01 07:04:39;;;;;;;;;;;;;;;25.04;62.88;100358.63;7395574;19;1283;-47
2023/08/01 07:07:08;;;;;;;;;;;;;;;25.04;62.69;100361.31;7396388;19;1104;-47
2023/08/01 07:09:36;;;;;;;;;;;;;;;25.09;62.55;100356.19;7391057;19;2241;-47
2023/08/01 07:12:05;;;;;;;;;;;;;;;25.06;62.82;100357.41;7394464;19;1523;-47
2023/08/01 07:14:33;;;;;;;;;;;;;;;25.00;62.82;100350.84;7394005;19;1369;-47
2023/08/01 07:17:02;;;;;;;;;;;;;;;25.02;62.80;100356.94;7394213;19;1477;-47
2023/08/01 07:19:30;;;;;;;;;;;;;;;25.02;62.63;100356.94;7393594;19;1440;-47
2023/08/01 07:22:01;;;;;;;;;;;;;;;25.06;62.82;100348.44;7393495;19;1510;-47
2023/08/01 07:24:29;;;;;;;;;;;;;;;25.01;62.90;100347.16;7394591;19;1827;-47
2023/08/01 07:26:58;;;;;;;;;;;;;;;25.01;62.88;100344.44;7392950;19;1558;-47
2023/08/01 07:29:26;;;;;;;;;;;;;;;24.95;62.90;100342.47;7390937;19;1845;-47
2023/08/01 07:31:54;;;;;;;;;;;;;;;24.97;63.03;100340.44;7390889;19;1703;-47
2023/08/01 07:34:22;;;;;;;;;;;;;;;25.00;62.88;100345.44;7392261;19;1625;-47
2023/08/01 07:36:51;;;;;;;;;;;;;;;24.98;62.98;100335.84;7392367;19;1490;-47
2023/08/01 07:39:22;;;;;;;;;;;;;;;25.00;62.98;100340.03;7393061;19;1451;-47
2023/08/01 07:41:50;;;;;;;;;;;;;;;25.02;62.92;100331.75;7392325;19;1351;-47
2023/08/01 07:44:18;;;;;;;;;;;;;;;24.97;62.95;100334.19;7393740;19;1687;-47
2023/08/01 07:46:46;;;;;;;;;;;;;;;24.96;63.08;100338.72;7391742;19;1530;-47
2023/08/01 07:49:15;;;;;;;;;;;;;;;24.95;62.88;100337.06;7391175;19;2421;-47
2023/08/01 07:51:43;;;;;;;;;;;;;;;25.01;63.13;100336.31;7393110;19;1662;-47
2023/08/01 07:54:11;;;;;;;;;;;;;;;24.95;63.00;100334.38;7392505;19;1067;-47
2023/08/01 07:56:43;;;;;;;;;;;;;;;24.95;63.17;100330.81;7390334;19;1804;-47
2023/08/01 07:59:11;;;;;;;;;;;;;;;24.95;63.19;100337.06;7391680;19;1925;-47
2023/08/01 08:01:40;;;;;;;;;;;;;;;24.94;62.94;100326.44;7391757;19;1562;-47
2023/08/01 08:04:08;;;;;;;;;;;;;;;24.94;63.11;100339.94;7393041;19;1430;-47
2023/08/01 08:06:36;;;;;;;;;;;;;;;24.92;63.11;100329.31;7391192;19;1404;-47
2023/08/01 08:09:05;;;;;;;;;;;;;;;24.95;62.92;100328.94;7390857;19;1845;-47
2023/08/01 08:11:33;;;;;;;;;;;;;;;24.98;63.21;100325.03;7393912;19;1126;-47
2023/08/01 08:14:04;;;;;;;;;;;;;;;24.97;63.18;100339.59;7391517;19;1350;-47
2023/08/01 08:16:32;;;;;;;;;;;;;;;24.98;63.26;100330.44;7392501;19;1521;-47
2023/08/01 08:19:00;;;;;;;;;;;;;;;25.01;63.15;100330.09;7390711;19;1385;-47
2023/08/01 08:21:29;;;;;;;;;;;;;;;25.01;62.88;100325.50;7390978;19;1514;-47
2023/08/01 08:23:57;;;;;;;;;;;;;;;25.00;63.02;100321.09;7393326;19;1584;-47
2023/08/01 08:26:25;;;;;;;;;;;;;;;24.99;62.96;100322.16;7391880;19;1633;-47
2023/08/01 08:28:54;;;;;;;;;;;;;;;24.94;62.87;100346.19;7392562;19;1858;-47
2023/08/01 08:31:25;;;;;;;;;;;;;;;25.00;63.12;100323.81;7392168;19;1535;-47
2023/08/01 08:33:53;;;;;;;;;;;;;;;25.04;62.83;100318.03;7391130;19;1473;-47
2023/08/01 08:36:21;;;;;;;;;;;;;;;25.06;63.02;100318.69;7391780;19;1500;-47
2023/08/01 08:38:50;;;;;;;;;;;;;;;25.01;62.97;100317.38;7391257;19;1596;-47
2023/08/01 08:41:22;;;;;;;;;;;;;;;25.05;62.74;100317.00;7390023;19;1517;-47
2023/08/01 08:43:51;;;;;;;;;;;;;;;25.06;62.96;100310.56;7389825;19;1393;-47
2023/08/01 08:46:19;;;;;;;;;;;;;;;25.04;63.03;100304.50;7389791;19;1550;-47
2023/08/01 08:48:50;;;;;;;;;;;;;;;25.02;62.97;100313.63;7390123;19;1869;-47
2023/08/01 08:51:19;;;;;;;;;;;;;;;25.09;62.93;100315.59;7391277;19;1467;-47
2023/08/01 08:53:47;;;;;;;;;;;;;;;25.10;62.97;100295.66;7391298;19;1071;-47
2023/08/01 08:56:16;;;;;;;;;;;;;;;25.07;62.70;100296.00;7390105;19;1812;-47
2023/08/01 08:58:46;;;;;;;;;;;;;;;25.16;62.42;100281.38;7388990;19;1462;-47
2023/08/01 09:01:15;;;;;;;;;;;;;;;25.13;62.91;100289.88;7390405;19;1558;-47
2023/08/01 09:03:44;;;;;;;;;;;;;;;25.07;62.80;100287.88;7389921;19;1501;-47
2023/08/01 09:06:16;;;;;;;;;;;;;;;25.08;62.67;100278.75;7389130;19;1328;-47
2023/08/01 09:08:49;;;;;;;;;;;;;;;25.09;62.67;100293.94;7391612;19;1174;-47
2023/08/01 09:11:18;;;;;;;;;;;;;;;25.12;62.67;100285.47;7391441;19;2035;-47
2023/08/01 09:13:46;;;;;;;;;;;;;;;25.14;62.65;100286.13;7396052;19;1239;-47
2023/08/01 09:16:15;;;;;;;;;;;;;;;25.17;62.87;100285.75;7396548;19;1238;-47
2023/08/01 09:18:50;;;;;;;;;;;;;;;25.14;62.53;100281.53;7395721;19;1165;-47
2023/08/01 09:21:23;;;;;;;;;;;;;;;25.16;62.46;100273.25;7396152;19;1163;-47
2023/08/01 09:23:51;;;;;;;;;;;;;;;25.17;62.61;100270.34;7395435;19;1248;-47
2023/08/01 09:26:20;;;;;;;;;;;;;;;25.14;62.65;100267.19;7394887;19;1502;-47
2023/08/01 09:28:57;;;;;;;;;;;;;;;25.11;62.80;100259.44;7396750;19;1026;-47
2023/08/01 09:31:29;;;;;;;;;;;;;;;25.10;62.99;100265.88;7396045;19;1561;-47
2023/08/01 09:33:57;;;;;;;;;;;;;;;25.12;62.90;100261.13;7396560;19;1874;-47
2023/08/01 09:36:28;;;;;;;;;;;;;;;25.11;62.62;100254.88;7395515;19;1507;-47
2023/08/01 09:39:00;;;;;;;;;;;;;;;25.13;62.76;100254.69;7394703;19;1753;-47
2023/08/01 09:41:29;;;;;;;;;;;;;;;25.11;62.87;100256.72;7395421;19;1261;-47
2023/08/01 09:43:57;;;;;;;;;;;;;;;25.16;62.77;100262.44;7395703;19;1477;-47
2023/08/01 09:46:26;;;;;;;;;;;;;;;25.13;62.77;100262.81;7394210;19;1851;-47
2023/08/01 09:48:54;;;;;;;;;;;;;;;25.13;62.83;100257.41;7395119;19;1557;-47
2023/08/01 09:51:22;;;;;;;;;;;;;;;25.10;62.77;100255.06;7393096;19;1851;-47
2023/08/01 09:53:54;;;;;;;;;;;;;;;25.05;62.79;100236.69;7396199;19;1185;-47
2023/08/01 09:56:24;;;;;;;;;;;;;;;25.09;63.19;100253.38;7402128;19;1175;-47
2023/08/01 09:58:53;;;;;;;;;;;;;;;25.09;63.00;100248.81;7402231;19;1202;-46
2023/08/01 10:01:23;;;;;;;;;;;;;;;25.09;62.98;100250.66;7402976;19;1447;-47
2023/08/01 10:03:52;;;;;;;;;;;;;;;25.09;62.85;100250.66;7402392;19;1227;-47
2023/08/01 10:06:21;;;;;;;;;;;;;;;25.10;62.93;100244.25;7401488;19;1242;-47
2023/08/01 10:08:51;;;;;;;;;;;;;;;25.05;63.10;100236.69;7402473;19;1269;-47
2023/08/01 10:11:22;;;;;;;;;;;;;;;25.10;63.17;100236.13;7399244;19;1813;-47
2023/08/01 10:13:51;;;;;;;;;;;;;;;25.11;62.80;100232.38;7402242;19;1571;-47
2023/08/01 10:16:19;;;;;;;;;;;;;;;25.11;62.73;100206.19;7401449;19;1162;-47
2023/08/01 10:18:47;;;;;;;;;;;;;;;25.10;62.79;100219.88;7400511;19;1496;-47
2023/08/01 10:21:18;;;;;;;;;;;;;;;25.09;62.79;100213.66;7402117;19;1550;-47
2023/08/01 10:23:47;;;;;;;;;;;;;;;25.06;63.08;100219.44;7402221;19;1498;-47
2023/08/01 10:26:16;;;;;;;;;;;;;;;25.05;63.27;100219.59;7401532;19;1631;-47
2023/08/01 10:28:52;;;;;;;;;;;;;;;25.05;63.04;100223.19;7401693;19;1548;-47
2023/08/01 10:31:22;;;;;;;;;;;;;;;25.04;63.35;100199.00;7399684;19;1842;-47
2023/08/01 10:33:52;;;;;;;;;;;;;;;25.00;63.21;100204.78;7401195;19;1481;-47
2023/08/01 10:36:21;;;;;;;;;;;;;;;25.04;63.33;100209.81;7401535;19;1233;-47
2023/08/01 10:38:50;;;;;;;;;;;;;;;25.04;63.01;100210.66;7401029;19;1268;-47
2023/08/01 10:41:28;;;;;;;;;;;;;;;25.06;63.01;100203.19;7400999;19;1557;-47
2023/08/01 10:44:10;;;;;;;;;;;;;;;25.05;63.14;100201.53;7401751;19;1422;-47
2023/08/01 10:46:48;;;;;;;;;;;;;;;25.05;63.39;100192.56;7401153;19;1502;-47
2023/08/01 10:49:17;;;;;;;;;;;;;;;24.99;63.09;100176.06;7400873;19;1206;-47
2023/08/01 10:51:45;;;;;;;;;;;;;;;25.02;63.32;100194.59;7397961;19;1852;-47
2023/08/01 10:54:26;;;;;;;;;;;;;;;25.04;63.36;100188.19;7402139;19;1139;-47
2023/08/01 10:56:58;;;;;;;;;;;;;;;24.96;63.28;100173.72;7398861;19;1065;-47
2023/08/01 10:59:29;;;;;;;;;;;;;;;24.98;63.55;100173.56;7401573;19;1025;-47
2023/08/01 11:02:01;;;;;;;;;;;;;;;25.00;63.20;100175.03;7400404;19;1828;-47
2023/08/01 11:04:29;;;;;;;;;;;;;;;24.98;63.42;100179.78;7400213;19;1815;-47
2023/08/01 11:06:58;;;;;;;;;;;;;;;24.99;63.40;100178.78;7399707;19;1435;-51
2023/08/01 11:09:27;;;;;;;;;;;;;;;25.00;63.54;100180.44;7400108;19;1541;-47
2023/08/01 11:11:56;;;;;;;;;;;;;;;24.99;63.39;100165.25;7400143;19;1630;-47
2023/08/01 11:14:25;;;;;;;;;;;;;;;25.02;63.20;100158.63;7400082;19;1276;-47
2023/08/01 11:16:56;;;;;;;;;;;;;;;24.99;63.23;100159.84;7401262;19;1586;-47
2023/08/01 11:19:26;;;;;;;;;;;;;;;25.01;63.14;100160.50;7396386;19;1974;-47
2023/08/01 11:21:56;;;;;;;;;;;;;;;24.97;63.62;100159.19;7400286;19;1245;-47
2023/08/01 11:24:24;;;;;;;;;;;;;;;25.00;63.34;100161.50;7401415;19;1540;-47
2023/08/01 11:26:53;;;;;;;;;;;;;;;25.00;63.55;100161.50;7399548;19;1549;-47
2023/08/01 11:29:22;;;;;;;;;;;;;;;25.00;63.41;100156.09;7397427;19;2440;-47
2023/08/01 11:31:59;;;;;;;;;;;;;;;25.00;63.54;100157.97;7397356;19;1874;-47
2023/08/01 11:34:28;;;;;;;;;;;;;;;25.04;63.46;100150.31;7399741;19;1596;-47
2023/08/01 11:36:56;;;;;;;;;;;;;;;25.04;63.19;100144.91;7400309;19;1026;-47
2023/08/01 11:39:25;;;;;;;;;;;;;;;25.05;63.47;100131.19;7399145;19;1537;-47
2023/08/01 11:41:53;;;;;;;;;;;;;;;25.04;63.16;100132.22;7397027;19;1505;-47
2023/08/01 11:44:26;;;;;;;;;;;;;;;25.06;63.25;100126.63;7399227;19;1505;-47
2023/08/01 11:46:54;;;;;;;;;;;;;;;25.07;63.13;100122.88;7399507;19;1316;-47
2023/08/01 11:49:26;;;;;;;;;;;;;;;25.10;63.01;100119.78;7398947;19;1465;-47
2023/08/01 11:51:54;;;;;;;;;;;;;;;25.08;63.36;100119.16;7396253;19;1846;-47
2023/08/01 11:54:22;;;;;;;;;;;;;;;25.10;63.00;100100.84;7398336;19;1663;-47
2023/08/01 11:56:50;;;;;;;;;;;;;;;25.05;63.36;100097.88;7398791;19;1627;-47
2023/08/01 11:59:19;;;;;;;;;;;;;;;25.07;63.09;100101.22;7397337;19;1399;-47
2023/08/01 12:01:48;;;;;;;;;;;;;;;25.08;63.22;100100.22;7399299;19;1238;-47
2023/08/01 12:04:29;;;;;;;;;;;;;;;25.11;63.26;100102.50;7398092;19;1198;-47
2023/08/01 12:06:57;;;;;;;;;;;;;;;25.08;63.11;100098.34;7397994;19;1871;-47
2023/08/01 12:09:26;;;;;;;;;;;;;;;25.06;63.48;100105.81;7397911;19;1209;-47
2023/08/01 12:12:00;;;;;;;;;;;;;;;25.05;63.44;100109.56;7396559;19;1851;-47
2023/08/01 12:14:28;;;;;;;;;;;;;;;25.07;63.14;100091.25;7398576;19;1725;-47
2023/08/01 12:16:57;;;;;;;;;;;;;;;25.06;63.21;100100.41;7398763;19;1125;-47
2023/08/01 12:19:25;;;;;;;;;;;;;;;25.04;63.45;100078.09;7395564;19;1805;-47
2023/08/01 12:21:56;;;;;;;;;;;;;;;25.06;63.19;100084.16;7398894;19;1427;-47
2023/08/01 12:24:24;;;;;;;;;;;;;;;25.05;63.69;100098.72;7398047;19;1257;-48
2023/08/01 12:26:52;;;;;;;;;;;;;;;25.04;63.38;100079.97;7398031;19;1499;-47
2023/08/01 12:29:21;;;;;;;;;;;;;;;25.06;63.49;100094.16;7397938;19;1623;-47
2023/08/01 12:31:49;;;;;;;;;;;;;;;25.00;63.47;100074.94;7396381;19;1851;-47
2023/08/01 12:34:17;;;;;;;;;;;;;;;25.01;63.49;100084.75;7397631;19;1253;-47
2023/08/01 12:36:46;;;;;;;;;;;;;;;25.05;63.36;100092.47;7397078;19;1280;-47
2023/08/01 12:39:16;;;;;;;;;;;;;;;25.02;63.49;100070.19;7397901;19;1517;-47
2023/08/01 12:41:45;;;;;;;;;;;;;;;25.02;63.61;100067.47;7396895;19;1366;-47
2023/08/01 12:44:15;;;;;;;;;;;;;;;25.04;63.44;100069.16;7398073;19;1939;-47
2023/08/01 12:46:44;;;;;;;;;;;;;;;25.05;63.52;100065.41;7397466;19;1792;-47
2023/08/01 12:49:12;;;;;;;;;;;;;;;25.07;63.61;100079.56;7396835;19;1572;-47
2023/08/01 12:51:40;;;;;;;;;;;;;;;25.05;63.52;100065.41;7396113;19;1841;-48
2023/08/01 12:54:09;;;;;;;;;;;;;;;25.01;63.59;100067.69;7396799;19;1954;-47
2023/08/01 12:56:39;;;;;;;;;;;;;;;25.05;63.75;100060.84;7397294;19;1582;-47
2023/08/01 12:59:08;;;;;;;;;;;;;;;25.06;63.66;100046.28;7397383;19;1735;-47
2023/08/01 13:01:36;;;;;;;;;;;;;;;25.04;63.72;100055.63;7396586;19;1474;-47
2023/08/01 13:04:05;;;;;;;;;;;;;;;25.02;63.57;100036.88;7396617;19;1817;-47
2023/08/01 13:06:33;;;;;;;;;;;;;;;25.05;63.75;100049.19;7395725;19;1376;-48
2023/08/01 13:09:01;;;;;;;;;;;;;;;25.02;63.76;100040.41;7397612;19;1680;-47
2023/08/01 13:11:30;;;;;;;;;;;;;;;25.07;63.31;100044.41;7396475;19;1858;-47
2023/08/01 13:14:01;;;;;;;;;;;;;;;25.06;63.63;100040.88;7397985;19;1834;-47
2023/08/01 13:16:29;;;;;;;;;;;;;;;25.08;63.35;100037.97;7396639;19;1527;-47